Colombo Express — DIHC — position and weather

sailwx.info

Track history (hours):
 
Tides and Currents Weather Stations Pressure Air Temp Water Temp Dewpoint Dewpoint Depression Visibility Wind Speed Wind Dir Waves Ship Positions

Colombo Express

Last reported at 2017-Feb-24 06:00 UTC. Time now 2017-Feb-24 08:20 UTC.
Position N 48°12' W 015°24'.

Length 335.5 m; beam 42.8 m; draft 14.6 m.

Type: Ship. MMSI: 211433000.

Wind from 240 at 12 knots

Barometer 1021.8 mb
Air temperature 11.4 ° C
Visibility: greater than 10.8 NM
Dewpoint 3.4 ° C
Water temperature 12.0 ° C

Date/timePositionNaut miles runAvg speedWind from/ knotsBaromVisibWave heightAir tempDewpointWater temp
2017-Feb-24 06:00N 48°12' W 015°24'15025.0 240 / 121021.810.8 11.4 3.412.0
2017-Feb-24 00:00N 48°42' W 011°42'11318.8 340 / 151022.0 5.4 9.8 2.611.0
2017-Feb-23 18:00N 49°06' W 008°54'17213.5 320 / 261015.410.8 9.5 2.812.0
2017-Feb-23 05:14N 49°51' W 004°38'1116.6
2017-Feb-23 04:33N 49°53' W 004°21'1616.3
2017-Feb-23 03:34N 49°54' W 003°56'1616.4
2017-Feb-23 02:34N 49°56' W 003°31'1717.1
2017-Feb-23 01:34N 49°59' W 003°05'1818.0
2017-Feb-23 00:34N 50°02' W 002°37'1919.2
2017-Feb-22 23:33N 50°08' W 002°08'1919.5
2017-Feb-22 22:33N 50°14' W 001°40'2019.0
2017-Feb-22 21:31N 50°27' W 001°15'1717.5
2017-Feb-22 20:33N 50°38' W 000°56'1010.2
2017-Feb-22 19:33N 50°45' W 001°08'1010.1
2017-Feb-22 18:34N 50°51' W 001°21'5 0.2
2017-Feb-21 23:33N 50°54' W 001°26'7 7.3
2017-Feb-21 22:33N 50°49' W 001°18'1010.0
2017-Feb-21 21:34N 50°44' W 001°04'7 7.1
2017-Feb-21 20:33N 50°37' W 001°01'3 2.4
2017-Feb-21 19:13N 50°34' W 001°02'0 0.0
2017-Feb-21 17:31N 50°34' W 001°02'0 0.1
2017-Feb-21 16:28N 50°34' W 001°02'0 0.0
2017-Feb-21 15:19N 50°34' W 001°02'0 0.0
2017-Feb-21 14:30N 50°34' W 001°02'7 7.7
2017-Feb-21 13:33N 50°35' W 000°51'1514.6
2017-Feb-21 12:33N 50°34' W 000°28'1515.4
2017-Feb-21 11:33N 50°32' W 000°04'1615.8
2017-Feb-21 10:33N 50°35' E 000°20'1615.6
2017-Feb-21 09:33N 50°42' E 000°43'1515.1
2017-Feb-21 08:33N 50°51' E 001°03'1514.7
2017-Feb-21 07:33N 51°01' E 001°19'1414.6
2017-Feb-21 06:33N 51°09' E 001°38'1414.4
2017-Feb-21 05:33N 51°20' E 001°52'1615.6
2017-Feb-21 04:33N 51°33' E 002°08'12315.3
2017-Feb-20 20:32N 53°07' E 004°17'1515.2
2017-Feb-20 19:32N 53°20' E 004°30'11814.2
2017-Feb-20 11:14N 54°01' E 007°37'1014.4
2017-Feb-20 10:32N 54°01' E 007°54'1413.7
2017-Feb-20 09:33N 54°00' E 008°16'1615.7
2017-Feb-20 08:33N 53°54' E 008°41'1212.1
2017-Feb-20 07:34N 53°51' E 009°01'9 9.5
2017-Feb-20 06:33N 53°52' E 009°17'1212.3
2017-Feb-20 05:33N 53°42' E 009°30'10 9.8
2017-Feb-20 04:33N 53°34' E 009°39'8 7.5
2017-Feb-20 03:33N 53°33' E 009°52'4 3.6
2017-Feb-20 02:34N 53°30' E 009°56'0 0.0
2017-Feb-20 01:31N 53°30' E 009°56'0 0.0
2017-Feb-20 00:28N 53°30' E 009°56'0 0.0
2017-Feb-19 23:31N 53°30' E 009°56'0 0.0
2017-Feb-19 22:31N 53°30' E 009°56'0 0.0
2017-Feb-19 21:31N 53°30' E 009°56'0 0.0
2017-Feb-19 20:31N 53°30' E 009°56'0 0.0
2017-Feb-19 19:31N 53°30' E 009°56'0 0.0
2017-Feb-19 18:31N 53°30' E 009°56'0 0.0
2017-Feb-19 17:31N 53°30' E 009°56'0 0.0
2017-Feb-19 16:31N 53°30' E 009°56'0 0.0
2017-Feb-19 15:31N 53°30' E 009°56'0 0.0
2017-Feb-19 14:28N 53°30' E 009°56'0 0.0
2017-Feb-19 13:31N 53°30' E 009°56'0 0.0
2017-Feb-19 12:31N 53°30' E 009°56'0 0.0
2017-Feb-19 11:31N 53°30' E 009°56'0 0.0
2017-Feb-19 10:31N 53°30' E 009°56'0 0.0
2017-Feb-19 09:31N 53°30' E 009°56'0 0.0
2017-Feb-19 08:31N 53°30' E 009°56'0 0.0
2017-Feb-19 07:31N 53°30' E 009°56'0 0.0
2017-Feb-19 06:31N 53°30' E 009°56'0 0.0
2017-Feb-19 05:31N 53°30' E 009°56'0 0.0
2017-Feb-19 04:31N 53°30' E 009°56'0 0.0
2017-Feb-19 03:31N 53°30' E 009°56'0 0.0
2017-Feb-19 02:31N 53°30' E 009°56'0 0.0
2017-Feb-19 01:31N 53°30' E 009°56'0 0.0
2017-Feb-19 00:31N 53°30' E 009°56'0 0.0
2017-Feb-18 23:31N 53°30' E 009°56'0 0.0
2017-Feb-18 22:31N 53°30' E 009°56'0 0.0
2017-Feb-18 21:31N 53°30' E 009°56'0 0.0
2017-Feb-18 20:31N 53°30' E 009°56'0 0.0
2017-Feb-18 19:31N 53°30' E 009°56'0 0.0
2017-Feb-18 18:30N 53°30' E 009°56'0 0.0
2017-Feb-18 17:33N 53°30' E 009°56'0 0.1
2017-Feb-18 16:32N 53°30' E 009°56'0 0.0
2017-Feb-18 15:33N 53°30' E 009°56'1 1.2
2017-Feb-18 14:33N 53°31' E 009°56'6 6.4
2017-Feb-18 13:33N 53°34' E 009°46'9 8.7
2017-Feb-18 12:33N 53°37' E 009°33'1010.1
2017-Feb-18 11:33N 53°46' E 009°24'10 9.6
2017-Feb-18 10:33N 53°53' E 009°13'9 9.1
2017-Feb-18 09:34N 53°51' E 008°58'10 9.7
2017-Feb-18 08:33N 53°54' E 008°42'9 8.7
2017-Feb-18 07:33N 53°58' E 008°30'1111.4
2017-Feb-18 06:33N 53°60' E 008°10'1010.3
2017-Feb-18 05:33N 53°59' E 007°53'1612.7
2017-Feb-18 04:18N 53°55' E 007°26'912.0
2017-Feb-18 03:31N 53°53' E 007°11'5716.4
2017-Feb-18 00:04N 53°36' E 005°39'1017.3
2017-Feb-17 23:29N 53°33' E 005°23'1617.2
2017-Feb-17 22:33N 53°28' E 004°58'1916.1
2017-Feb-17 21:22N 53°15' E 004°34'1417.2
2017-Feb-17 20:34N 53°03' E 004°23'1717.1
2017-Feb-17 19:33N 52°47' E 004°09'1717.1
2017-Feb-17 18:34N 52°33' E 003°56'1716.9
2017-Feb-17 17:34N 52°16' E 003°53'1414.1
2017-Feb-17 16:33N 52°02' E 003°56'6 6.2
2017-Feb-17 15:33N 51°58' E 004°04'2 2.5
2017-Feb-17 14:34N 51°57' E 003°60'0 0.3
2017-Feb-17 13:32N 51°57' E 003°59'0 0.0
2017-Feb-17 12:32N 51°57' E 003°59'0 0.0
2017-Feb-17 11:32N 51°57' E 003°59'0 0.0
2017-Feb-17 10:32N 51°57' E 003°59'0 0.0
2017-Feb-17 09:32N 51°57' E 003°59'0 0.0
2017-Feb-17 08:29N 51°57' E 003°59'0 0.0
2017-Feb-17 07:32N 51°57' E 003°59'0 0.0
2017-Feb-17 06:32N 51°57' E 003°59'0 0.0
2017-Feb-17 05:32N 51°57' E 003°59'0 0.0
2017-Feb-17 04:32N 51°57' E 003°59'0 0.0
2017-Feb-17 03:32N 51°57' E 003°59'0 0.0
2017-Feb-17 02:32N 51°57' E 003°59'0 0.0
2017-Feb-17 01:32N 51°57' E 003°59'0 0.0
2017-Feb-17 00:32N 51°57' E 003°59'0 0.0
2017-Feb-16 23:32N 51°57' E 003°59'0 0.0
2017-Feb-16 22:32N 51°57' E 003°59'0 0.0
2017-Feb-16 21:32N 51°57' E 003°59'0 0.0
2017-Feb-16 20:32N 51°57' E 003°59'0 0.0
2017-Feb-16 19:32N 51°57' E 003°59'0 0.0
2017-Feb-16 18:29N 51°57' E 003°59'0 0.0
2017-Feb-16 17:32N 51°57' E 003°59'0 0.0
2017-Feb-16 16:32N 51°57' E 003°59'0 0.0
2017-Feb-16 15:32N 51°57' E 003°59'0 0.0
2017-Feb-16 14:32N 51°57' E 003°59'0 0.0
2017-Feb-16 13:32N 51°57' E 003°59'0 0.0
2017-Feb-16 12:32N 51°57' E 003°59'0 0.0
2017-Feb-16 11:32N 51°57' E 003°59'0 0.0
2017-Feb-16 10:29N 51°57' E 003°59'0 0.0
2017-Feb-16 09:29N 51°57' E 003°59'0 0.0
2017-Feb-16 08:29N 51°57' E 003°59'0 0.0
2017-Feb-16 07:32N 51°57' E 003°59'0 0.0
2017-Feb-16 06:32N 51°57' E 003°59'0 0.0
2017-Feb-16 05:32N 51°57' E 003°59'0 0.0
2017-Feb-16 04:32N 51°57' E 003°59'0 0.0
2017-Feb-16 03:31N 51°57' E 003°59'0 0.0
2017-Feb-16 02:30N 51°57' E 003°59'0 0.0
2017-Feb-16 01:33N 51°57' E 003°59'0 0.0
2017-Feb-16 00:33N 51°57' E 003°59'1 1.1
2017-Feb-15 23:34N 51°58' E 003°60'3 2.7
2017-Feb-15 22:34N 51°58' E 004°04'9 8.6
2017-Feb-15 21:33N 51°60' E 003°51'1111.2
2017-Feb-15 20:33N 51°57' E 003°33'5 5.2
2017-Feb-15 19:33N 51°54' E 003°26'0 0.0
2017-Feb-15 18:27N 51°54' E 003°26'0 0.0
2017-Feb-15 16:27N 51°54' E 003°26'0 0.1
2017-Feb-15 11:32N 51°54' E 003°25'0 0.0
2017-Feb-15 10:18N 51°54' E 003°25'0 0.2
2017-Feb-15 09:29N 51°54' E 003°25'0 0.1
2017-Feb-15 08:33N 51°54' E 003°25'0 0.0
2017-Feb-15 07:33N 51°54' E 003°26'0 0.1
2017-Feb-15 06:32N 51°54' E 003°26'0 0.0
2017-Feb-15 05:33N 51°54' E 003°26'0 0.0
2017-Feb-15 04:32N 51°54' E 003°26'0 0.0
2017-Feb-15 03:33N 51°54' E 003°26'0 0.1
2017-Feb-15 02:33N 51°54' E 003°26'0 0.3
2017-Feb-15 01:27N 51°54' E 003°25'0 0.0
2017-Feb-15 00:21N 51°54' E 003°25'0 0.0
2017-Feb-14 23:33N 51°54' E 003°25'0 0.0
2017-Feb-14 22:32N 51°54' E 003°25'0 0.1
2017-Feb-14 21:33N 51°54' E 003°25'0 0.1
2017-Feb-14 20:32N 51°54' E 003°25'0 0.1
2017-Feb-14 19:30N 51°54' E 003°25'0 0.1
2017-Feb-14 18:30N 51°54' E 003°26'0 0.1
2017-Feb-14 17:33N 51°54' E 003°26'0 0.0
2017-Feb-14 16:33N 51°54' E 003°26'0 0.0
2017-Feb-14 15:24N 51°54' E 003°26'0 0.2
2017-Feb-14 14:33N 51°54' E 003°25'0 0.0
2017-Feb-14 13:29N 51°54' E 003°25'0 0.0
2017-Feb-14 10:33N 51°54' E 003°25'1110.3
2017-Feb-14 09:32N 51°53' E 003°08'1514.9
2017-Feb-14 08:30N 51°48' E 002°45'1515.3
2017-Feb-14 07:33N 51°39' E 002°27'1616.3
2017-Feb-14 06:33N 51°27' E 002°09'  
Track history (hours):
 
Tides and Currents Weather Stations Pressure Air Temp Water Temp Dewpoint Dewpoint Depression Visibility Wind Speed Wind Dir Waves Ship Positions

Colombo Express

Last reported at 2017-Feb-24 06:00 UTC. Time now 2017-Feb-24 08:20 UTC.
Position N 48°12' W 015°24'.

Length 335.5 m; beam 42.8 m; draft 14.6 m.

Type: Ship. MMSI: 211433000.

Wind from 240 at 12 knots

Barometer 1021.8 mb
Air temperature 11.4 ° C
Visibility: greater than 10.8 NM
Dewpoint 3.4 ° C
Water temperature 12.0 ° C

Date/timePositionNaut miles runAvg speedWind from/ knotsBaromVisibWave heightAir tempDewpointWater temp
2017-Feb-24 06:00N 48°12' W 015°24'15025.0 240 / 121021.810.8 11.4 3.412.0
2017-Feb-24 00:00N 48°42' W 011°42'11318.8 340 / 151022.0 5.4 9.8 2.611.0
2017-Feb-23 18:00N 49°06' W 008°54'17213.5 320 / 261015.410.8 9.5 2.812.0
2017-Feb-23 05:14N 49°51' W 004°38'1116.6
2017-Feb-23 04:33N 49°53' W 004°21'1616.3
2017-Feb-23 03:34N 49°54' W 003°56'1616.4
2017-Feb-23 02:34N 49°56' W 003°31'1717.1
2017-Feb-23 01:34N 49°59' W 003°05'1818.0
2017-Feb-23 00:34N 50°02' W 002°37'1919.2
2017-Feb-22 23:33N 50°08' W 002°08'1919.5
2017-Feb-22 22:33N 50°14' W 001°40'2019.0
2017-Feb-22 21:31N 50°27' W 001°15'1717.5
2017-Feb-22 20:33N 50°38' W 000°56'1010.2
2017-Feb-22 19:33N 50°45' W 001°08'1010.1
2017-Feb-22 18:34N 50°51' W 001°21'5 0.2
2017-Feb-21 23:33N 50°54' W 001°26'7 7.3
2017-Feb-21 22:33N 50°49' W 001°18'1010.0
2017-Feb-21 21:34N 50°44' W 001°04'7 7.1
2017-Feb-21 20:33N 50°37' W 001°01'3 2.4
2017-Feb-21 19:13N 50°34' W 001°02'0 0.0
2017-Feb-21 17:31N 50°34' W 001°02'0 0.1
2017-Feb-21 16:28N 50°34' W 001°02'0 0.0
2017-Feb-21 15:19N 50°34' W 001°02'0 0.0
2017-Feb-21 14:30N 50°34' W 001°02'7 7.7
2017-Feb-21 13:33N 50°35' W 000°51'1514.6
2017-Feb-21 12:33N 50°34' W 000°28'1515.4
2017-Feb-21 11:33N 50°32' W 000°04'1615.8
2017-Feb-21 10:33N 50°35' E 000°20'1615.6
2017-Feb-21 09:33N 50°42' E 000°43'1515.1
2017-Feb-21 08:33N 50°51' E 001°03'1514.7
2017-Feb-21 07:33N 51°01' E 001°19'1414.6
2017-Feb-21 06:33N 51°09' E 001°38'1414.4
2017-Feb-21 05:33N 51°20' E 001°52'1615.6
2017-Feb-21 04:33N 51°33' E 002°08'12315.3
2017-Feb-20 20:32N 53°07' E 004°17'1515.2
2017-Feb-20 19:32N 53°20' E 004°30'11814.2
2017-Feb-20 11:14N 54°01' E 007°37'1014.4
2017-Feb-20 10:32N 54°01' E 007°54'1413.7
2017-Feb-20 09:33N 54°00' E 008°16'1615.7
2017-Feb-20 08:33N 53°54' E 008°41'1212.1
2017-Feb-20 07:34N 53°51' E 009°01'9 9.5
2017-Feb-20 06:33N 53°52' E 009°17'1212.3
2017-Feb-20 05:33N 53°42' E 009°30'10 9.8
2017-Feb-20 04:33N 53°34' E 009°39'8 7.5
2017-Feb-20 03:33N 53°33' E 009°52'4 3.6
2017-Feb-20 02:34N 53°30' E 009°56'0 0.0
2017-Feb-20 01:31N 53°30' E 009°56'0 0.0
2017-Feb-20 00:28N 53°30' E 009°56'0 0.0
2017-Feb-19 23:31N 53°30' E 009°56'0 0.0
2017-Feb-19 22:31N 53°30' E 009°56'0 0.0
2017-Feb-19 21:31N 53°30' E 009°56'0 0.0
2017-Feb-19 20:31N 53°30' E 009°56'0 0.0
2017-Feb-19 19:31N 53°30' E 009°56'0 0.0
2017-Feb-19 18:31N 53°30' E 009°56'0 0.0
2017-Feb-19 17:31N 53°30' E 009°56'0 0.0
2017-Feb-19 16:31N 53°30' E 009°56'0 0.0
2017-Feb-19 15:31N 53°30' E 009°56'0 0.0
2017-Feb-19 14:28N 53°30' E 009°56'0 0.0
2017-Feb-19 13:31N 53°30' E 009°56'0 0.0
2017-Feb-19 12:31N 53°30' E 009°56'0 0.0
2017-Feb-19 11:31N 53°30' E 009°56'0 0.0
2017-Feb-19 10:31N 53°30' E 009°56'0 0.0
2017-Feb-19 09:31N 53°30' E 009°56'0 0.0
2017-Feb-19 08:31N 53°30' E 009°56'0 0.0
2017-Feb-19 07:31N 53°30' E 009°56'0 0.0
2017-Feb-19 06:31N 53°30' E 009°56'0 0.0
2017-Feb-19 05:31N 53°30' E 009°56'0 0.0
2017-Feb-19 04:31N 53°30' E 009°56'0 0.0
2017-Feb-19 03:31N 53°30' E 009°56'0 0.0
2017-Feb-19 02:31N 53°30' E 009°56'0 0.0
2017-Feb-19 01:31N 53°30' E 009°56'0 0.0
2017-Feb-19 00:31N 53°30' E 009°56'0 0.0
2017-Feb-18 23:31N 53°30' E 009°56'0 0.0
2017-Feb-18 22:31N 53°30' E 009°56'0 0.0
2017-Feb-18 21:31N 53°30' E 009°56'0 0.0
2017-Feb-18 20:31N 53°30' E 009°56'0 0.0
2017-Feb-18 19:31N 53°30' E 009°56'0 0.0
2017-Feb-18 18:30N 53°30' E 009°56'0 0.0
2017-Feb-18 17:33N 53°30' E 009°56'0 0.1
2017-Feb-18 16:32N 53°30' E 009°56'0 0.0
2017-Feb-18 15:33N 53°30' E 009°56'1 1.2
2017-Feb-18 14:33N 53°31' E 009°56'6 6.4
2017-Feb-18 13:33N 53°34' E 009°46'9 8.7
2017-Feb-18 12:33N 53°37' E 009°33'1010.1
2017-Feb-18 11:33N 53°46' E 009°24'10 9.6
2017-Feb-18 10:33N 53°53' E 009°13'9 9.1
2017-Feb-18 09:34N 53°51' E 008°58'10 9.7
2017-Feb-18 08:33N 53°54' E 008°42'9 8.7
2017-Feb-18 07:33N 53°58' E 008°30'1111.4
2017-Feb-18 06:33N 53°60' E 008°10'1010.3
2017-Feb-18 05:33N 53°59' E 007°53'1612.7
2017-Feb-18 04:18N 53°55' E 007°26'912.0
2017-Feb-18 03:31N 53°53' E 007°11'5716.4
2017-Feb-18 00:04N 53°36' E 005°39'1017.3
2017-Feb-17 23:29N 53°33' E 005°23'1617.2
2017-Feb-17 22:33N 53°28' E 004°58'1916.1
2017-Feb-17 21:22N 53°15' E 004°34'1417.2
2017-Feb-17 20:34N 53°03' E 004°23'1717.1
2017-Feb-17 19:33N 52°47' E 004°09'1717.1
2017-Feb-17 18:34N 52°33' E 003°56'1716.9
2017-Feb-17 17:34N 52°16' E 003°53'1414.1
2017-Feb-17 16:33N 52°02' E 003°56'6 6.2
2017-Feb-17 15:33N 51°58' E 004°04'2 2.5
2017-Feb-17 14:34N 51°57' E 003°60'0 0.3
2017-Feb-17 13:32N 51°57' E 003°59'0 0.0
2017-Feb-17 12:32N 51°57' E 003°59'0 0.0
2017-Feb-17 11:32N 51°57' E 003°59'0 0.0
2017-Feb-17 10:32N 51°57' E 003°59'0 0.0
2017-Feb-17 09:32N 51°57' E 003°59'0 0.0
2017-Feb-17 08:29N 51°57' E 003°59'0 0.0
2017-Feb-17 07:32N 51°57' E 003°59'0 0.0
2017-Feb-17 06:32N 51°57' E 003°59'0 0.0
2017-Feb-17 05:32N 51°57' E 003°59'0 0.0
2017-Feb-17 04:32N 51°57' E 003°59'0 0.0
2017-Feb-17 03:32N 51°57' E 003°59'0 0.0
2017-Feb-17 02:32N 51°57' E 003°59'0 0.0
2017-Feb-17 01:32N 51°57' E 003°59'0 0.0
2017-Feb-17 00:32N 51°57' E 003°59'0 0.0
2017-Feb-16 23:32N 51°57' E 003°59'0 0.0
2017-Feb-16 22:32N 51°57' E 003°59'0 0.0
2017-Feb-16 21:32N 51°57' E 003°59'0 0.0
2017-Feb-16 20:32N 51°57' E 003°59'0 0.0
2017-Feb-16 19:32N 51°57' E 003°59'0 0.0
2017-Feb-16 18:29N 51°57' E 003°59'0 0.0
2017-Feb-16 17:32N 51°57' E 003°59'0 0.0
2017-Feb-16 16:32N 51°57' E 003°59'0 0.0
2017-Feb-16 15:32N 51°57' E 003°59'0 0.0
2017-Feb-16 14:32N 51°57' E 003°59'0 0.0
2017-Feb-16 13:32N 51°57' E 003°59'0 0.0
2017-Feb-16 12:32N 51°57' E 003°59'0 0.0
2017-Feb-16 11:32N 51°57' E 003°59'0 0.0
2017-Feb-16 10:29N 51°57' E 003°59'0 0.0
2017-Feb-16 09:29N 51°57' E 003°59'0 0.0
2017-Feb-16 08:29N 51°57' E 003°59'0 0.0
2017-Feb-16 07:32N 51°57' E 003°59'0 0.0
2017-Feb-16 06:32N 51°57' E 003°59'0 0.0
2017-Feb-16 05:32N 51°57' E 003°59'0 0.0
2017-Feb-16 04:32N 51°57' E 003°59'0 0.0
2017-Feb-16 03:31N 51°57' E 003°59'0 0.0
2017-Feb-16 02:30N 51°57' E 003°59'0 0.0
2017-Feb-16 01:33N 51°57' E 003°59'0 0.0
2017-Feb-16 00:33N 51°57' E 003°59'1 1.1
2017-Feb-15 23:34N 51°58' E 003°60'3 2.7
2017-Feb-15 22:34N 51°58' E 004°04'9 8.6
2017-Feb-15 21:33N 51°60' E 003°51'1111.2
2017-Feb-15 20:33N 51°57' E 003°33'5 5.2
2017-Feb-15 19:33N 51°54' E 003°26'0 0.0
2017-Feb-15 18:27N 51°54' E 003°26'0 0.0
2017-Feb-15 16:27N 51°54' E 003°26'0 0.1
2017-Feb-15 11:32N 51°54' E 003°25'0 0.0
2017-Feb-15 10:18N 51°54' E 003°25'0 0.2
2017-Feb-15 09:29N 51°54' E 003°25'0 0.1
2017-Feb-15 08:33N 51°54' E 003°25'0 0.0
2017-Feb-15 07:33N 51°54' E 003°26'0 0.1
2017-Feb-15 06:32N 51°54' E 003°26'0 0.0
2017-Feb-15 05:33N 51°54' E 003°26'0 0.0
2017-Feb-15 04:32N 51°54' E 003°26'0 0.0
2017-Feb-15 03:33N 51°54' E 003°26'0 0.1
2017-Feb-15 02:33N 51°54' E 003°26'0 0.3
2017-Feb-15 01:27N 51°54' E 003°25'0 0.0
2017-Feb-15 00:21N 51°54' E 003°25'0 0.0
2017-Feb-14 23:33N 51°54' E 003°25'0 0.0
2017-Feb-14 22:32N 51°54' E 003°25'0 0.1
2017-Feb-14 21:33N 51°54' E 003°25'0 0.1
2017-Feb-14 20:32N 51°54' E 003°25'0 0.1
2017-Feb-14 19:30N 51°54' E 003°25'0 0.1
2017-Feb-14 18:30N 51°54' E 003°26'0 0.1
2017-Feb-14 17:33N 51°54' E 003°26'0 0.0
2017-Feb-14 16:33N 51°54' E 003°26'0 0.0
2017-Feb-14 15:24N 51°54' E 003°26'0 0.2
2017-Feb-14 14:33N 51°54' E 003°25'0 0.0
2017-Feb-14 13:29N 51°54' E 003°25'0 0.0
2017-Feb-14 10:33N 51°54' E 003°25'1110.3
2017-Feb-14 09:32N 51°53' E 003°08'1514.9
2017-Feb-14 08:30N 51°48' E 002°45'1515.3
2017-Feb-14 07:33N 51°39' E 002°27'1616.3
2017-Feb-14 06:33N 51°27' E 002°09'  

Dump ship's entire track history